createdAt,value
2018-12-26T00:04:56.746Z,82.31
2018-12-26T00:07:38.274Z,82.22
2018-12-26T00:15:36.374Z,82.24
2018-12-26T00:18:05.929Z,82.32
2018-12-26T00:20:35.424Z,82.36
2018-12-26T00:23:04.976Z,82.43
2018-12-26T00:25:34.610Z,82.53
2018-12-26T00:28:04.024Z,82.53
2018-12-26T00:30:33.674Z,82.67
2018-12-26T00:33:03.188Z,82.68
2018-12-26T00:35:32.590Z,82.73
2018-12-26T00:38:01.992Z,82.77
2018-12-26T00:40:31.999Z,82.77
2018-12-26T00:43:01.411Z,83.04
2018-12-26T00:45:30.877Z,83.04
2018-12-26T00:48:00.415Z,82.64
2018-12-26T00:50:29.861Z,82.62
2018-12-26T00:53:18.333Z,82.45
2018-12-26T00:55:48.212Z,82.45
2018-12-26T00:58:17.668Z,82.41
2018-12-26T01:00:47.140Z,82.36
2018-12-26T01:03:16.553Z,82.35
2018-12-26T01:05:46.417Z,82.30
2018-12-26T01:08:27.856Z,82.33
2018-12-26T01:10:57.568Z,82.32
2018-12-26T01:13:27.204Z,82.30
2018-12-26T01:15:56.925Z,82.33
2018-12-26T01:18:33.617Z,82.35
2018-12-26T01:21:03.056Z,82.37
2018-12-26T01:23:32.484Z,82.42
2018-12-26T01:26:01.908Z,82.52
2018-12-26T01:28:31.727Z,82.48
2018-12-26T01:33:52.800Z,82.54
2018-12-26T01:36:22.305Z,82.51
2018-12-26T01:38:51.794Z,82.47
2018-12-26T01:41:21.262Z,82.46
2018-12-26T01:43:51.305Z,82.43
2018-12-26T01:46:20.743Z,82.43
2018-12-26T01:48:50.201Z,82.46
2018-12-26T01:51:19.601Z,82.44
2018-12-26T01:53:49.012Z,82.40
2018-12-26T01:56:18.532Z,82.35
2018-12-26T01:58:48.362Z,82.19
2018-12-26T02:01:17.773Z,82.14
2018-12-26T02:03:47.235Z,82.13
2018-12-26T02:06:16.658Z,82.15
2018-12-26T02:08:46.119Z,82.12
2018-12-26T02:11:15.725Z,82.07
2018-12-26T02:13:45.166Z,82.07
2018-12-26T02:16:14.589Z,82.04
2018-12-26T02:18:44.039Z,81.91
2018-12-26T02:21:13.579Z,81.84
2018-12-26T02:23:43.023Z,81.80
2018-12-26T02:26:12.590Z,81.75
2018-12-26T02:28:42.087Z,81.67
2018-12-26T02:31:11.709Z,81.51
2018-12-26T02:33:41.139Z,81.34
2018-12-26T02:36:11.096Z,81.10
2018-12-26T02:38:40.511Z,80.87
2018-12-26T02:41:10.354Z,80.65
2018-12-26T02:43:39.926Z,80.43
2018-12-26T02:46:09.785Z,80.31
2018-12-26T02:48:39.280Z,80.21
2018-12-26T02:51:08.961Z,80.23
2018-12-26T02:53:38.364Z,80.27
2018-12-26T02:56:08.786Z,80.26
2018-12-26T03:01:27.354Z,80.23
2018-12-26T03:03:56.966Z,80.24
2018-12-26T03:09:16.941Z,79.87
2018-12-26T03:11:46.372Z,79.87
2018-12-26T03:14:16.030Z,80.13
2018-12-26T03:17:04.358Z,79.89
2018-12-26T03:22:28.100Z,79.93
2018-12-26T03:25:17.200Z,79.96
2018-12-26T03:28:05.642Z,79.96
2018-12-26T03:30:35.106Z,80.01
2018-12-26T03:33:04.725Z,80.15
2018-12-26T03:35:34.378Z,80.43
2018-12-26T03:38:03.794Z,80.43
2018-12-26T03:43:28.895Z,80.39
2018-12-26T03:45:58.742Z,80.57
2018-12-26T03:51:35.737Z,80.03
2018-12-26T03:54:06.141Z,80.03
2018-12-26T03:56:35.580Z,80.52
2018-12-26T03:59:05.146Z,80.44
2018-12-26T04:01:34.573Z,80.56
2018-12-26T04:04:03.998Z,80.67
2018-12-26T04:06:33.567Z,80.84
2018-12-26T04:09:03.323Z,81.05
2018-12-26T04:11:32.732Z,80.88
2018-12-26T04:14:02.216Z,80.87
2018-12-26T04:16:51.315Z,81.17
2018-12-26T04:19:20.805Z,81.17
2018-12-26T04:22:09.730Z,81.08
2018-12-26T04:24:39.619Z,81.08
2018-12-26T04:27:15.606Z,81.58
2018-12-26T04:29:44.805Z,81.71
2018-12-26T04:32:14.544Z,81.60
2018-12-26T04:34:43.943Z,81.60
2018-12-26T04:37:13.571Z,81.95
2018-12-26T04:39:42.968Z,82.05
2018-12-26T04:42:32.924Z,82.16
2018-12-26T04:45:02.707Z,82.15
2018-12-26T04:47:32.129Z,82.10
2018-12-26T04:50:01.576Z,82.01
2018-12-26T04:52:31.309Z,82.01
2018-12-26T04:55:00.790Z,81.98
2018-12-26T04:57:41.279Z,81.99
2018-12-26T05:00:10.847Z,82.02
2018-12-26T05:02:40.306Z,82.04
2018-12-26T05:05:11.745Z,82.07
2018-12-26T05:07:41.278Z,82.10
2018-12-26T05:10:29.755Z,82.48
2018-12-26T05:13:02.118Z,82.48
2018-12-26T05:15:31.598Z,82.29
2018-12-26T05:18:01.049Z,82.32
2018-12-26T05:20:30.478Z,82.34
2018-12-26T05:22:59.973Z,82.32
2018-12-26T05:25:29.605Z,82.34
2018-12-26T05:27:59.132Z,82.34
2018-12-26T05:30:28.555Z,82.29
2018-12-26T05:32:58.285Z,82.34
2018-12-26T05:35:27.789Z,82.40
2018-12-26T05:37:57.563Z,82.44
2018-12-26T05:40:27.285Z,82.36
2018-12-26T05:42:56.770Z,82.33
2018-12-26T05:48:16.298Z,82.09
2018-12-26T05:50:45.873Z,82.03
2018-12-26T05:53:15.310Z,81.92
2018-12-26T05:55:44.953Z,81.98
2018-12-26T05:58:14.423Z,81.93
2018-12-26T06:00:43.957Z,82.07
2018-12-26T06:03:13.408Z,81.97
2018-12-26T06:05:42.867Z,82.14
2018-12-26T06:08:12.608Z,82.19
2018-12-26T06:10:42.347Z,82.17
2018-12-26T06:13:11.932Z,82.29
2018-12-26T06:15:51.715Z,82.12
2018-12-26T06:18:21.225Z,82.10
2018-12-26T06:20:50.625Z,82.27
2018-12-26T06:25:55.689Z,82.57
2018-12-26T06:31:06.422Z,83.11
2018-12-26T06:33:35.923Z,83.49
2018-12-26T06:36:05.347Z,83.54
2018-12-26T06:38:34.881Z,83.62
2018-12-26T06:41:04.284Z,83.58
2018-12-26T06:43:33.689Z,83.80
2018-12-26T06:46:03.169Z,83.75
2018-12-26T06:48:32.686Z,83.69
2018-12-26T06:51:02.152Z,83.87
2018-12-26T06:53:50.601Z,83.94
2018-12-26T06:59:10.579Z,83.71
2018-12-26T07:01:50.198Z,83.53
2018-12-26T07:04:19.815Z,83.39
2018-12-26T07:06:49.668Z,83.17
2018-12-26T07:09:19.071Z,82.92
2018-12-26T07:11:48.596Z,82.61
2018-12-26T07:14:18.033Z,82.35
2018-12-26T07:16:47.892Z,82.11
2018-12-26T07:19:17.311Z,81.88
2018-12-26T07:21:47.929Z,81.65
2018-12-26T07:24:17.406Z,81.46
2018-12-26T07:26:47.304Z,81.29
2018-12-26T07:29:16.728Z,81.23
2018-12-26T07:31:46.152Z,81.20
2018-12-26T07:34:15.587Z,81.17
2018-12-26T07:36:45.086Z,81.32
2018-12-26T07:39:14.538Z,81.25
2018-12-26T07:41:44.098Z,81.36
2018-12-26T07:44:13.536Z,81.35
2018-12-26T07:46:42.981Z,81.41
2018-12-26T07:49:12.451Z,81.34
2018-12-26T07:51:42.023Z,81.26
2018-12-26T07:54:11.437Z,81.17
2018-12-26T07:56:43.371Z,81.00
2018-12-26T07:59:12.940Z,80.84
2018-12-26T08:01:42.605Z,80.68
2018-12-26T08:04:12.382Z,80.45
2018-12-26T08:06:41.976Z,80.11
2018-12-26T08:09:11.407Z,79.83
2018-12-26T08:11:41.083Z,79.85
2018-12-26T08:14:10.673Z,79.73
2018-12-26T08:16:40.322Z,79.67
2018-12-26T08:19:12.433Z,79.63
2018-12-26T08:21:42.057Z,79.50
2018-12-26T08:24:11.509Z,79.09
2018-12-26T08:26:41.165Z,78.92
2018-12-26T08:29:10.567Z,78.75
2018-12-26T08:31:40.469Z,78.44
2018-12-26T08:34:10.215Z,78.28
2018-12-26T08:36:39.776Z,78.09
2018-12-26T08:39:09.402Z,77.72
2018-12-26T08:41:39.066Z,77.67
2018-12-26T08:44:10.866Z,77.41
2018-12-26T08:46:40.286Z,77.45
2018-12-26T08:49:10.182Z,77.25
2018-12-26T08:52:00.163Z,77.21
2018-12-26T08:54:29.784Z,77.22
2018-12-26T08:57:02.457Z,77.15
2018-12-26T08:59:31.856Z,77.22
2018-12-26T09:02:01.517Z,77.03
2018-12-26T09:04:50.098Z,76.54
2018-12-26T09:07:20.320Z,76.54
2018-12-26T09:09:49.796Z,76.16
2018-12-26T09:12:19.282Z,75.86
2018-12-26T09:14:48.683Z,75.42
2018-12-26T09:17:18.354Z,74.93
2018-12-26T09:19:47.732Z,74.36
2018-12-26T09:22:17.222Z,74.21
2018-12-26T09:24:46.691Z,74.22
2018-12-26T09:27:16.497Z,74.24
2018-12-26T09:29:45.958Z,74.33
2018-12-26T09:32:15.546Z,74.62
2018-12-26T09:34:44.966Z,74.71
2018-12-26T09:37:21.973Z,74.90
2018-12-26T09:39:51.415Z,74.87
2018-12-26T09:42:21.188Z,75.16
2018-12-26T09:44:54.583Z,75.25
2018-12-26T09:47:21.978Z,75.72
2018-12-26T09:50:02.319Z,75.60
2018-12-26T09:52:41.155Z,76.10
2018-12-26T09:55:29.220Z,75.99
2018-12-26T09:57:58.773Z,75.99
2018-12-26T10:00:31.130Z,76.92
2018-12-26T10:03:00.682Z,76.92
2018-12-26T10:05:30.119Z,76.79
2018-12-26T10:07:59.568Z,76.91
2018-12-26T10:10:31.100Z,77.04
2018-12-26T10:13:00.504Z,77.08
2018-12-26T10:15:29.952Z,77.12
2018-12-26T10:18:19.959Z,77.12
2018-12-26T10:20:49.696Z,77.22
2018-12-26T10:23:19.103Z,77.21
2018-12-26T10:25:48.550Z,77.18
2018-12-26T10:28:17.962Z,77.07
2018-12-26T10:31:06.457Z,77.18
2018-12-26T10:33:36.147Z,76.63
2018-12-26T10:36:05.786Z,76.63
2018-12-26T10:38:35.443Z,76.22
2018-12-26T10:41:04.845Z,76.16
2018-12-26T10:43:34.296Z,75.98
2018-12-26T10:46:22.796Z,75.68
2018-12-26T10:54:20.681Z,75.43
2018-12-26T10:59:39.096Z,75.24
2018-12-26T11:02:08.510Z,75.07
2018-12-26T11:04:38.479Z,74.88
2018-12-26T11:07:08.137Z,74.60
2018-12-26T11:09:39.345Z,74.62
2018-12-26T11:12:09.128Z,74.56
2018-12-26T11:14:38.809Z,74.29
2018-12-26T11:17:08.416Z,73.98
2018-12-26T11:19:38.486Z,74.11
2018-12-26T11:22:08.196Z,73.72
2018-12-26T11:24:37.836Z,73.54
2018-12-26T11:27:07.323Z,73.50
2018-12-26T11:29:36.978Z,73.34
2018-12-26T11:32:06.380Z,73.19
2018-12-26T11:34:36.245Z,72.75
2018-12-26T11:37:05.697Z,72.63
2018-12-26T11:39:35.204Z,72.67
2018-12-26T11:42:04.606Z,72.75
2018-12-26T11:44:34.361Z,72.64
2018-12-26T11:47:03.890Z,72.55
2018-12-26T11:49:33.401Z,72.64
2018-12-26T11:52:02.978Z,72.70
2018-12-26T11:54:32.438Z,72.63
2018-12-26T11:57:01.963Z,72.35
2018-12-26T11:59:31.721Z,72.31
2018-12-26T12:02:01.631Z,72.10
2018-12-26T12:04:31.024Z,72.00
2018-12-26T12:07:00.578Z,71.82
2018-12-26T12:09:30.129Z,71.67
2018-12-26T12:11:59.636Z,71.50
2018-12-26T12:14:32.145Z,71.43
2018-12-26T12:17:01.578Z,71.12
2018-12-26T12:19:30.997Z,70.67
2018-12-26T12:22:00.459Z,69.89
2018-12-26T12:24:29.961Z,69.14
2018-12-26T12:26:59.667Z,68.67
2018-12-26T12:29:35.985Z,68.35
2018-12-26T12:32:12.329Z,68.37
2018-12-26T12:35:00.877Z,68.57
2018-12-26T12:40:24.851Z,68.80
2018-12-26T12:42:54.291Z,68.87
2018-12-26T12:45:23.948Z,68.15
2018-12-26T12:47:53.925Z,67.75
2018-12-26T12:50:23.356Z,67.52
2018-12-26T12:52:52.793Z,67.20
2018-12-26T12:55:22.270Z,66.52
2018-12-26T12:57:51.671Z,66.19
2018-12-26T13:00:21.074Z,66.14
2018-12-26T13:02:50.773Z,66.16
2018-12-26T13:05:20.228Z,66.41
2018-12-26T13:07:49.643Z,66.76
2018-12-26T13:10:19.096Z,67.15
2018-12-26T13:13:07.425Z,67.57
2018-12-26T13:15:37.340Z,68.02
2018-12-26T13:18:06.738Z,68.46
2018-12-26T13:20:36.209Z,68.83
2018-12-26T13:23:05.841Z,68.92
2018-12-26T13:25:35.334Z,69.39
2018-12-26T13:28:04.785Z,69.30
2018-12-26T13:30:34.255Z,69.17
2018-12-26T13:33:03.831Z,69.49
2018-12-26T13:35:33.233Z,69.43
2018-12-26T13:38:02.745Z,69.41
2018-12-26T13:40:32.310Z,69.54
2018-12-26T13:43:01.683Z,69.63
2018-12-26T13:45:31.109Z,69.68
2018-12-26T13:48:00.498Z,69.75
2018-12-26T13:50:29.978Z,69.87
2018-12-26T13:52:59.744Z,70.07
2018-12-26T13:55:29.183Z,70.20
2018-12-26T13:57:58.565Z,70.26
2018-12-26T14:00:28.039Z,70.32
2018-12-26T14:02:57.470Z,70.37
2018-12-26T14:05:26.977Z,70.18
2018-12-26T14:07:56.562Z,70.43
2018-12-26T14:10:26.356Z,70.50
2018-12-26T14:12:55.918Z,70.59
2018-12-26T14:15:25.375Z,70.67
2018-12-26T14:17:55.036Z,70.62
2018-12-26T14:20:24.821Z,70.70
2018-12-26T14:22:54.254Z,70.73
2018-12-26T14:25:23.987Z,70.67
2018-12-26T14:27:53.398Z,70.70
2018-12-26T14:30:22.875Z,70.82
2018-12-26T14:32:52.274Z,70.82
2018-12-26T14:35:21.690Z,70.77
2018-12-26T14:40:25.881Z,70.73
2018-12-26T14:43:06.677Z,70.69
2018-12-26T14:45:36.337Z,70.76
2018-12-26T14:48:05.765Z,70.38
2018-12-26T14:50:35.410Z,70.25
2018-12-26T14:56:04.694Z,71.04
2018-12-26T14:58:36.521Z,70.86
2018-12-26T15:01:06.177Z,70.84
2018-12-26T15:03:35.941Z,70.87
2018-12-26T15:06:05.348Z,70.89
2018-12-26T15:08:35.027Z,70.77
2018-12-26T15:11:04.766Z,71.00
2018-12-26T15:16:23.434Z,70.89
2018-12-26T15:18:52.943Z,70.70
2018-12-26T15:21:22.420Z,70.64
2018-12-26T15:23:51.871Z,70.51
2018-12-26T15:26:21.522Z,70.54
2018-12-26T15:28:51.064Z,70.34
2018-12-26T15:31:20.549Z,70.38
2018-12-26T15:33:50.002Z,70.55
2018-12-26T15:39:10.894Z,70.91
2018-12-26T15:41:40.647Z,70.91
2018-12-26T15:44:10.290Z,70.96
2018-12-26T15:46:40.060Z,70.89
2018-12-26T15:49:09.588Z,71.00
2018-12-26T15:51:39.207Z,70.91
2018-12-26T15:54:10.542Z,71.09
2018-12-26T15:56:40.064Z,71.18
2018-12-26T15:59:09.552Z,71.27
2018-12-26T16:01:39.181Z,71.48
2018-12-26T16:04:28.235Z,71.64
2018-12-26T16:07:09.169Z,71.64
2018-12-26T16:09:40.017Z,71.61
2018-12-26T16:12:09.439Z,71.61
2018-12-26T16:14:39.006Z,71.85
2018-12-26T16:17:27.558Z,72.02
2018-12-26T16:19:57.115Z,71.98
2018-12-26T16:22:26.572Z,72.13
2018-12-26T16:25:15.023Z,71.98
2018-12-26T16:27:44.526Z,72.33
2018-12-26T16:30:16.018Z,72.33
2018-12-26T16:32:46.910Z,72.22
2018-12-26T16:35:16.326Z,72.22
2018-12-26T16:37:46.248Z,71.99
2018-12-26T16:40:16.041Z,71.99
2018-12-26T16:42:45.516Z,72.16
2018-12-26T16:45:14.934Z,72.17
2018-12-26T16:47:44.381Z,72.18
2018-12-26T16:50:13.898Z,72.06
2018-12-26T16:52:45.338Z,72.19
2018-12-26T16:55:14.893Z,71.93
2018-12-26T16:57:44.346Z,71.68
2018-12-26T17:00:15.113Z,71.63
2018-12-26T17:02:45.515Z,71.40
2018-12-26T17:05:27.155Z,71.38
2018-12-26T17:08:07.991Z,71.16
2018-12-26T17:10:49.832Z,71.16
2018-12-26T17:13:19.305Z,71.18
2018-12-26T17:15:48.743Z,71.01
2018-12-26T17:18:37.107Z,70.81
2018-12-26T17:21:06.517Z,70.70
2018-12-26T17:23:35.952Z,70.70
2018-12-26T17:26:05.516Z,70.86
2018-12-26T17:28:34.913Z,70.62
2018-12-26T17:31:04.862Z,70.63
2018-12-26T17:33:34.355Z,70.36
2018-12-26T17:36:04.015Z,70.38
2018-12-26T17:38:33.440Z,70.18
2018-12-26T17:41:02.962Z,70.10
2018-12-26T17:43:51.739Z,70.11
2018-12-26T17:46:24.823Z,70.11
2018-12-26T17:48:54.322Z,69.90
2018-12-26T17:51:24.904Z,70.09
2018-12-26T17:54:16.883Z,70.09
2018-12-26T17:57:24.567Z,70.25
2018-12-26T18:00:05.135Z,70.25
2018-12-26T18:02:46.258Z,69.97
2018-12-26T18:05:16.063Z,69.95
2018-12-26T18:07:45.445Z,69.72
2018-12-26T18:10:21.091Z,69.85
2018-12-26T18:12:50.423Z,69.68
2018-12-26T18:15:19.830Z,69.52
2018-12-26T18:17:49.249Z,69.41
2018-12-26T18:20:19.321Z,69.19
2018-12-26T18:22:48.750Z,69.34
2018-12-26T18:25:18.228Z,69.19
2018-12-26T18:27:47.677Z,69.11
2018-12-26T18:30:17.243Z,69.14
2018-12-26T18:32:46.668Z,69.28
2018-12-26T18:35:16.215Z,69.17
2018-12-26T18:37:45.654Z,69.32
2018-12-26T18:40:15.101Z,69.21
2018-12-26T18:42:44.565Z,69.21
2018-12-26T18:45:14.334Z,68.94
2018-12-26T18:47:43.823Z,68.91
2018-12-26T18:50:13.403Z,68.97
2018-12-26T18:52:45.337Z,68.84
2018-12-26T18:55:14.782Z,68.34
2018-12-26T18:57:44.489Z,68.34
2018-12-26T19:00:14.037Z,68.16
2018-12-26T19:02:43.489Z,68.13
2018-12-26T19:05:14.095Z,68.19
2018-12-26T19:07:43.699Z,68.24
2018-12-26T19:10:16.136Z,68.28
2018-12-26T19:12:45.679Z,68.74
2018-12-26T19:15:15.127Z,68.45
2018-12-26T19:23:07.792Z,68.85
2018-12-26T19:25:37.611Z,69.24
2018-12-26T19:28:07.015Z,69.29
2018-12-26T19:30:36.434Z,69.12
2018-12-26T19:33:05.892Z,69.13
2018-12-26T19:35:35.317Z,69.42
2018-12-26T19:38:04.843Z,69.50
2018-12-26T19:40:34.329Z,69.83
2018-12-26T19:43:03.737Z,70.05
2018-12-26T19:45:33.211Z,70.04
2018-12-26T19:48:02.648Z,70.13
2018-12-26T19:50:32.359Z,70.28
2018-12-26T19:53:02.016Z,70.57
2018-12-26T19:55:31.677Z,70.52
2018-12-26T19:58:01.222Z,70.52
2018-12-26T20:00:30.735Z,70.67
2018-12-26T20:03:00.369Z,70.78
2018-12-26T20:05:29.846Z,70.80
2018-12-26T20:10:47.946Z,70.76
2018-12-26T20:13:17.409Z,70.99
2018-12-26T20:15:46.802Z,71.10
2018-12-26T20:18:16.682Z,71.21
2018-12-26T20:20:46.099Z,70.97
2018-12-26T20:23:15.610Z,71.21
2018-12-26T20:25:45.174Z,71.47
2018-12-26T20:28:15.027Z,71.71
2018-12-26T20:30:44.486Z,71.86
2018-12-26T20:33:14.019Z,71.90
2018-12-26T20:35:43.420Z,71.94
2018-12-26T20:38:12.968Z,72.12
2018-12-26T20:40:42.514Z,72.21
2018-12-26T20:43:12.072Z,72.39
2018-12-26T20:48:32.371Z,72.96
2018-12-26T20:51:01.832Z,73.17
2018-12-26T20:53:46.138Z,73.47
2018-12-26T20:58:38.149Z,73.84
2018-12-26T21:01:07.610Z,73.85
2018-12-26T21:03:37.116Z,74.00
2018-12-26T21:06:06.562Z,73.97
2018-12-26T21:08:36.063Z,74.14
2018-12-26T21:11:05.530Z,74.40
2018-12-26T21:13:35.036Z,74.81
2018-12-26T21:16:04.622Z,75.30
2018-12-26T21:18:34.046Z,75.76
2018-12-26T21:21:03.589Z,76.12
2018-12-26T21:23:33.002Z,76.40
2018-12-26T21:26:02.467Z,77.10
2018-12-26T21:28:31.909Z,77.48
2018-12-26T21:31:01.590Z,77.76
2018-12-26T21:33:31.022Z,78.10
2018-12-26T21:36:00.504Z,78.32
2018-12-26T21:38:30.037Z,78.52
2018-12-26T21:40:59.532Z,78.74
2018-12-26T21:43:29.042Z,79.04
2018-12-26T21:45:58.600Z,79.60
2018-12-26T21:48:47.417Z,79.59
2018-12-26T21:51:28.082Z,79.59
2018-12-26T21:53:58.567Z,79.73
2018-12-26T21:56:28.046Z,79.75
2018-12-26T21:58:57.871Z,79.94
2018-12-26T22:01:27.429Z,80.10
2018-12-26T22:03:57.416Z,80.29
2018-12-26T22:06:26.998Z,80.29
2018-12-26T22:08:58.966Z,80.45
2018-12-26T22:11:30.542Z,80.64
2018-12-26T22:14:00.098Z,81.02
2018-12-26T22:16:53.578Z,81.18
2018-12-26T22:19:23.334Z,81.44
2018-12-26T22:21:52.817Z,81.71
2018-12-26T22:24:22.259Z,81.69
2018-12-26T22:26:51.795Z,82.23
2018-12-26T22:29:21.247Z,82.52
2018-12-26T22:31:51.189Z,82.94
2018-12-26T22:34:20.616Z,83.23
2018-12-26T22:36:50.075Z,83.48
2018-12-26T22:39:19.622Z,83.61
2018-12-26T22:41:49.325Z,83.95
2018-12-26T22:44:18.765Z,84.36
2018-12-26T22:46:48.268Z,84.64
2018-12-26T22:49:17.690Z,84.52
2018-12-26T22:51:47.135Z,84.83
2018-12-26T22:54:16.653Z,84.90
2018-12-26T22:56:46.091Z,85.18
2018-12-26T22:59:15.494Z,85.34
2018-12-26T23:01:45.038Z,85.50
2018-12-26T23:04:14.454Z,85.80
2018-12-26T23:06:43.916Z,85.80
2018-12-26T23:11:49.042Z,85.90
2018-12-26T23:17:01.488Z,86.37
2018-12-26T23:19:31.229Z,86.54
2018-12-26T23:22:21.040Z,86.77
2018-12-26T23:24:50.532Z,86.97
2018-12-26T23:27:22.922Z,87.14
2018-12-26T23:29:52.399Z,87.07
2018-12-26T23:32:21.904Z,87.23
2018-12-26T23:34:51.319Z,87.57
2018-12-26T23:37:20.870Z,87.91
2018-12-26T23:39:50.323Z,88.27
2018-12-26T23:42:19.773Z,88.32
2018-12-26T23:44:49.425Z,88.30
2018-12-26T23:47:18.932Z,88.31
2018-12-26T23:49:48.359Z,88.38
2018-12-26T23:52:17.969Z,88.89
2018-12-26T23:54:47.507Z,89.04
2018-12-26T23:57:17.016Z,89.27
2018-12-26T23:59:46.518Z,89.21
